sensor_id;sensor_type;location;lat;lon;timestamp;pressure;altitude;pressure_sealevel;temperature;humidity
74232;BME280;62590;52.430;4.902;2022-09-09T00:02:01;100470.31;;;15.39;67.92
74232;BME280;62590;52.430;4.902;2022-09-09T00:04:32;100470.66;;;15.36;67.90
74232;BME280;62590;52.430;4.902;2022-09-09T00:09:55;100464.59;;;15.65;67.92
74232;BME280;62590;52.430;4.902;2022-09-09T00:12:40;100457.31;;;15.43;67.92
74232;BME280;62590;52.430;4.902;2022-09-09T00:15:11;100450.97;;;15.59;67.92
74232;BME280;62590;52.430;4.902;2022-09-09T00:20:35;100458.19;;;15.66;67.93
74232;BME280;62590;52.430;4.902;2022-09-09T00:23:20;100453.44;;;15.29;67.90
74232;BME280;62590;52.430;4.902;2022-09-09T00:28:23;100450.31;;;15.18;67.89
74232;BME280;62590;52.430;4.902;2022-09-09T00:30:50;100447.88;;;15.31;67.91
74232;BME280;62590;52.430;4.902;2022-09-09T00:33:18;100452.56;;;15.37;67.92
74232;BME280;62590;52.430;4.902;2022-09-09T00:35:57;100459.28;;;15.10;67.89
74232;BME280;62590;52.430;4.902;2022-09-09T00:38:31;100458.16;;;15.35;67.91
74232;BME280;62590;52.430;4.902;2022-09-09T00:41:05;100451.78;;;15.28;67.90
74232;BME280;62590;52.430;4.902;2022-09-09T00:43:38;100452.53;;;15.06;67.88
74232;BME280;62590;52.430;4.902;2022-09-09T00:46:25;100457.56;;;15.17;67.89
74232;BME280;62590;52.430;4.902;2022-09-09T00:57:23;100462.47;;;15.14;67.89
74232;BME280;62590;52.430;4.902;2022-09-09T00:59:52;100441.75;;;14.98;67.87
74232;BME280;62590;52.430;4.902;2022-09-09T01:02:27;100448.97;;;15.14;67.89
74232;BME280;62590;52.430;4.902;2022-09-09T01:05:02;100450.81;;;15.13;67.88
74232;BME280;62590;52.430;4.902;2022-09-09T01:07:30;100450.63;;;15.15;67.89
74232;BME280;62590;52.430;4.902;2022-09-09T01:09:59;100443.72;;;15.12;67.90
74232;BME280;62590;52.430;4.902;2022-09-09T01:12:30;100450.22;;;14.95;67.88
74232;BME280;62590;52.430;4.902;2022-09-09T01:15:09;100450.72;;;14.91;67.87
74232;BME280;62590;52.430;4.902;2022-09-09T01:26:10;100444.66;;;14.97;67.88
74232;BME280;62590;52.430;4.902;2022-09-09T01:28:38;100436.38;;;14.90;67.87
74232;BME280;62590;52.430;4.902;2022-09-09T01:31:06;100446.38;;;14.90;67.87
74232;BME280;62590;52.430;4.902;2022-09-09T01:33:33;100436.75;;;14.87;67.88
74232;BME280;62590;52.430;4.902;2022-09-09T01:36:06;100429.69;;;14.78;67.88
74232;BME280;62590;52.430;4.902;2022-09-09T01:38:34;100441.84;;;14.74;67.87
74232;BME280;62590;52.430;4.902;2022-09-09T01:41:01;100440.50;;;14.70;67.86
74232;BME280;62590;52.430;4.902;2022-09-09T01:43:27;100441.16;;;14.80;67.88
74232;BME280;62590;52.430;4.902;2022-09-09T01:45:54;100438.28;;;14.82;67.88
74232;BME280;62590;52.430;4.902;2022-09-09T01:48:22;100435.09;;;14.78;67.88
74232;BME280;62590;52.430;4.902;2022-09-09T01:50:48;100431.75;;;14.60;67.86
74232;BME280;62590;52.430;4.902;2022-09-09T01:53:15;100433.88;;;14.81;67.88
74232;BME280;62590;52.430;4.902;2022-09-09T01:56:01;100430.97;;;14.90;67.88
74232;BME280;62590;52.430;4.902;2022-09-09T02:04:43;100425.31;;;14.69;67.86
74232;BME280;62590;52.430;4.902;2022-09-09T02:09:43;100421.78;;;14.61;67.86
74232;BME280;62590;52.430;4.902;2022-09-09T02:12:15;100426.31;;;14.68;67.86
74232;BME280;62590;52.430;4.902;2022-09-09T02:14:47;100427.19;;;14.61;67.85
74232;BME280;62590;52.430;4.902;2022-09-09T02:17:20;100428.41;;;14.50;67.84
74232;BME280;62590;52.430;4.902;2022-09-09T02:19:53;100419.13;;;14.52;67.86
74232;BME280;62590;52.430;4.902;2022-09-09T02:22:24;100414.72;;;14.51;67.84
74232;BME280;62590;52.430;4.902;2022-09-09T02:24:53;100417.38;;;14.68;67.86
74232;BME280;62590;52.430;4.902;2022-09-09T02:27:22;100412.34;;;14.56;67.84
74232;BME280;62590;52.430;4.902;2022-09-09T02:29:49;100416.59;;;14.43;67.84
74232;BME280;62590;52.430;4.902;2022-09-09T02:32:21;100415.56;;;14.44;67.84
74232;BME280;62590;52.430;4.902;2022-09-09T02:34:55;100414.53;;;14.69;67.86
74232;BME280;62590;52.430;4.902;2022-09-09T02:37:24;100413.19;;;14.49;67.85
74232;BME280;62590;52.430;4.902;2022-09-09T02:39:54;100405.25;;;14.64;67.85
74232;BME280;62590;52.430;4.902;2022-09-09T02:42:19;100414.34;;;14.71;67.85
74232;BME280;62590;52.430;4.902;2022-09-09T02:44:45;100412.56;;;14.39;67.84
74232;BME280;62590;52.430;4.902;2022-09-09T02:47:19;100413.91;;;14.35;67.83
74232;BME280;62590;52.430;4.902;2022-09-09T02:56:03;100409.84;;;14.23;67.82
74232;BME280;62590;52.430;4.902;2022-09-09T02:58:29;100405.47;;;14.22;67.82
74232;BME280;62590;52.430;4.902;2022-09-09T03:00:55;100409.88;;;14.31;67.83
74232;BME280;62590;52.430;4.902;2022-09-09T03:03:23;100405.50;;;14.30;67.83
74232;BME280;62590;52.430;4.902;2022-09-09T03:05:49;100404.63;;;14.13;67.83
74232;BME280;62590;52.430;4.902;2022-09-09T03:08:14;100403.78;;;14.45;67.84
74232;BME280;62590;52.430;4.902;2022-09-09T03:10:40;100408.50;;;14.27;67.82
74232;BME280;62590;52.430;4.902;2022-09-09T03:13:05;100407.81;;;14.25;67.84
74232;BME280;62590;52.430;4.902;2022-09-09T03:15:33;100408.50;;;14.43;67.83
74232;BME280;62590;52.430;4.902;2022-09-09T03:17:59;100405.63;;;14.36;67.83
74232;BME280;62590;52.430;4.902;2022-09-09T03:20:25;100399.44;;;14.28;67.83
74232;BME280;62590;52.430;4.902;2022-09-09T03:22:55;100400.91;;;14.38;67.83
74232;BME280;62590;52.430;4.902;2022-09-09T03:25:21;100408.88;;;14.08;67.81
74232;BME280;62590;52.430;4.902;2022-09-09T03:27:49;100403.59;;;14.06;67.82
74232;BME280;62590;52.430;4.902;2022-09-09T03:30:15;100406.81;;;13.86;67.80
74232;BME280;62590;52.430;4.902;2022-09-09T03:32:40;100400.06;;;13.90;67.79
74232;BME280;62590;52.430;4.902;2022-09-09T03:35:06;100397.75;;;13.95;67.80
74232;BME280;62590;52.430;4.902;2022-09-09T03:37:32;100392.69;;;14.08;67.81
74232;BME280;62590;52.430;4.902;2022-09-09T03:39:57;100392.84;;;13.98;67.81
74232;BME280;62590;52.430;4.902;2022-09-09T03:42:22;100389.47;;;13.88;67.79
74232;BME280;62590;52.430;4.902;2022-09-09T03:44:48;100384.72;;;14.06;67.81
74232;BME280;62590;52.430;4.902;2022-09-09T03:47:20;100382.22;;;13.89;67.79
74232;BME280;62590;52.430;4.902;2022-09-09T03:49:47;100384.91;;;14.21;67.82
74232;BME280;62590;52.430;4.902;2022-09-09T03:52:13;100384.22;;;14.11;67.81
74232;BME280;62590;52.430;4.902;2022-09-09T03:54:39;100389.13;;;13.75;67.78
74232;BME280;62590;52.430;4.902;2022-09-09T03:57:05;100386.25;;;14.09;67.81
74232;BME280;62590;52.430;4.902;2022-09-09T03:59:31;100392.00;;;13.98;67.79
74232;BME280;62590;52.430;4.902;2022-09-09T04:02:00;100386.59;;;13.74;67.79
74232;BME280;62590;52.430;4.902;2022-09-09T04:04:25;100378.69;;;13.72;67.79
74232;BME280;62590;52.430;4.902;2022-09-09T04:06:52;100376.47;;;13.92;67.80
74232;BME280;62590;52.430;4.902;2022-09-09T04:09:17;100375.78;;;13.57;67.78
74232;BME280;62590;52.430;4.902;2022-09-09T04:11:42;100374.44;;;13.61;67.78
74232;BME280;62590;52.430;4.902;2022-09-09T04:14:08;100382.38;;;13.71;67.77
74232;BME280;62590;52.430;4.902;2022-09-09T04:16:34;100372.09;;;13.75;67.79
74232;BME280;62590;52.430;4.902;2022-09-09T04:19:03;100375.81;;;13.66;67.78
74232;BME280;62590;52.430;4.902;2022-09-09T04:21:30;100365.72;;;13.76;67.78
74232;BME280;62590;52.430;4.902;2022-09-09T04:23:55;100373.44;;;13.71;67.78
74232;BME280;62590;52.430;4.902;2022-09-09T04:26:21;100361.66;;;13.63;67.77
74232;BME280;62590;52.430;4.902;2022-09-09T04:28:46;100367.06;;;13.72;67.79
74232;BME280;62590;52.430;4.902;2022-09-09T04:33:43;100355.41;;;13.71;67.79
74232;BME280;62590;52.430;4.902;2022-09-09T04:36:08;100359.63;;;13.57;67.78
74232;BME280;62590;52.430;4.902;2022-09-09T04:38:33;100356.94;;;13.66;67.79
74232;BME280;62590;52.430;4.902;2022-09-09T04:40:59;100354.75;;;13.61;67.78
74232;BME280;62590;52.430;4.902;2022-09-09T04:43:24;100354.41;;;13.48;67.77
74232;BME280;62590;52.430;4.902;2022-09-09T04:45:53;100361.13;;;13.52;67.78
74232;BME280;62590;52.430;4.902;2022-09-09T04:48:19;100358.09;;;13.47;67.77
74232;BME280;62590;52.430;4.902;2022-09-09T04:53:21;100355.25;;;13.56;67.77
74232;BME280;62590;52.430;4.902;2022-09-09T04:55:47;100353.91;;;13.60;67.77
74232;BME280;62590;52.430;4.902;2022-09-09T04:58:13;100359.13;;;13.70;67.78
74232;BME280;62590;52.430;4.902;2022-09-09T05:00:39;100353.72;;;13.54;67.77
74232;BME280;62590;52.430;4.902;2022-09-09T05:03:05;100354.75;;;13.53;67.78
74232;BME280;62590;52.430;4.902;2022-09-09T05:05:31;100352.56;;;13.65;67.78
74232;BME280;62590;52.430;4.902;2022-09-09T05:08:07;100343.28;;;13.67;67.78
74232;BME280;62590;52.430;4.902;2022-09-09T05:10:37;100350.34;;;13.60;67.77
74232;BME280;62590;52.430;4.902;2022-09-09T05:13:02;100348.31;;;13.54;67.77
74232;BME280;62590;52.430;4.902;2022-09-09T05:15:29;100354.56;;;13.71;67.79
74232;BME280;62590;52.430;4.902;2022-09-09T05:17:59;100353.22;;;13.75;67.79
74232;BME280;62590;52.430;4.902;2022-09-09T05:20:25;100347.34;;;13.55;67.77
74232;BME280;62590;52.430;4.902;2022-09-09T05:22:53;100349.03;;;13.64;67.78
74232;BME280;62590;52.430;4.902;2022-09-09T05:25:19;100351.69;;;13.56;67.77
74232;BME280;62590;52.430;4.902;2022-09-09T05:27:44;100352.06;;;13.61;67.78
74232;BME280;62590;52.430;4.902;2022-09-09T05:30:10;100352.91;;;13.53;67.77
74232;BME280;62590;52.430;4.902;2022-09-09T05:32:35;100341.78;;;13.56;67.77
74232;BME280;62590;52.430;4.902;2022-09-09T05:35:01;100339.25;;;13.63;67.77
74232;BME280;62590;52.430;4.902;2022-09-09T05:37:27;100336.72;;;13.53;67.78
74232;BME280;62590;52.430;4.902;2022-09-09T05:39:52;100336.72;;;13.53;67.77
74232;BME280;62590;52.430;4.902;2022-09-09T05:42:18;100338.03;;;13.57;67.79
74232;BME280;62590;52.430;4.902;2022-09-09T05:44:43;100336.72;;;13.70;67.78
74232;BME280;62590;52.430;4.902;2022-09-09T05:47:10;100337.22;;;13.57;67.77
74232;BME280;62590;52.430;4.902;2022-09-09T05:49:35;100341.78;;;13.56;67.77
74232;BME280;62590;52.430;4.902;2022-09-09T05:52:00;100341.25;;;13.53;67.77
74232;BME280;62590;52.430;4.902;2022-09-09T05:54:26;100348.50;;;13.52;67.78
74232;BME280;62590;52.430;4.902;2022-09-09T05:56:51;100351.38;;;13.59;67.77
74232;BME280;62590;52.430;4.902;2022-09-09T05:59:18;100354.75;;;13.61;67.78
74232;BME280;62590;52.430;4.902;2022-09-09T06:01:44;100352.38;;;13.66;67.79
74232;BME280;62590;52.430;4.902;2022-09-09T06:04:10;100361.81;;;13.54;67.77
74232;BME280;62590;52.430;4.902;2022-09-09T06:06:37;100361.66;;;13.63;67.77
74232;BME280;62590;52.430;4.902;2022-09-09T06:09:05;100353.41;;;13.73;67.78
74232;BME280;62590;52.430;4.902;2022-09-09T06:11:36;100347.81;;;13.75;67.79
74232;BME280;62590;52.430;4.902;2022-09-09T06:14:04;100358.78;;;13.81;67.79
74232;BME280;62590;52.430;4.902;2022-09-09T06:16:30;100346.16;;;13.82;67.80
74232;BME280;62590;52.430;4.902;2022-09-09T06:19:00;100343.94;;;13.93;67.80
74232;BME280;62590;52.430;4.902;2022-09-09T06:21:38;100333.84;;;13.87;67.80
74232;BME280;62590;52.430;4.902;2022-09-09T06:24:04;100339.75;;;13.91;67.79
74232;BME280;62590;52.430;4.902;2022-09-09T06:26:31;100336.53;;;14.03;67.81
74232;BME280;62590;52.430;4.902;2022-09-09T06:28:58;100345.13;;;13.99;67.81
74232;BME280;62590;52.430;4.902;2022-09-09T06:31:26;100346.28;;;14.04;67.80
74232;BME280;62590;52.430;4.902;2022-09-09T06:33:55;100346.28;;;14.04;67.80
74232;BME280;62590;52.430;4.902;2022-09-09T06:36:23;100340.72;;;14.14;67.82
74232;BME280;62590;52.430;4.902;2022-09-09T06:38:49;100333.31;;;14.08;67.81
74232;BME280;62590;52.430;4.902;2022-09-09T06:41:17;100337.69;;;14.09;67.81
74232;BME280;62590;52.430;4.902;2022-09-09T06:43:44;100328.94;;;13.99;67.81
74232;BME280;62590;52.430;4.902;2022-09-09T06:46:16;100353.88;;;14.09;67.81
74232;BME280;62590;52.430;4.902;2022-09-09T06:48:42;100342.06;;;14.18;67.81
74232;BME280;62590;52.430;4.902;2022-09-09T06:51:15;100345.44;;;14.28;67.82
74232;BME280;62590;52.430;4.902;2022-09-09T06:53:42;100336.31;;;14.29;67.83
74232;BME280;62590;52.430;4.902;2022-09-09T06:58:45;100340.84;;;14.36;67.84
74232;BME280;62590;52.430;4.902;2022-09-09T07:01:12;100350.13;;;14.42;67.85
74232;BME280;62590;52.430;4.902;2022-09-09T07:03:44;100342.31;;;14.55;67.85
74232;BME280;62590;52.430;4.902;2022-09-09T07:06:15;100337.94;;;14.54;67.85
74232;BME280;62590;52.430;4.902;2022-09-09T07:08:43;100333.16;;;14.64;67.85
74232;BME280;62590;52.430;4.902;2022-09-09T07:11:09;100332.34;;;14.64;67.85
74232;BME280;62590;52.430;4.902;2022-09-09T07:13:35;100333.66;;;14.68;67.86
74232;BME280;62590;52.430;4.902;2022-09-09T07:16:04;100335.19;;;14.62;67.85
74232;BME280;62590;52.430;4.902;2022-09-09T07:18:31;100339.59;;;14.63;67.85
74232;BME280;62590;52.430;4.902;2022-09-09T07:20:56;100337.91;;;14.62;67.85
74232;BME280;62590;52.430;4.902;2022-09-09T07:23:22;100334.38;;;14.62;67.86
74232;BME280;62590;52.430;4.902;2022-09-09T07:25:48;100333.16;;;14.64;67.85
74232;BME280;62590;52.430;4.902;2022-09-09T07:28:14;100341.13;;;14.57;67.85
74232;BME280;62590;52.430;4.902;2022-09-09T07:30:40;100343.47;;;14.69;67.85
74232;BME280;62590;52.430;4.902;2022-09-09T07:33:06;100337.25;;;14.60;67.86
74232;BME280;62590;52.430;4.902;2022-09-09T07:35:31;100342.66;;;14.60;67.85
74232;BME280;62590;52.430;4.902;2022-09-09T07:37:57;100343.47;;;14.61;67.85
74232;BME280;62590;52.430;4.902;2022-09-09T07:40:23;100345.19;;;14.62;67.85
74232;BME280;62590;52.430;4.902;2022-09-09T07:42:49;100344.16;;;14.63;67.85
74232;BME280;62590;52.430;4.902;2022-09-09T07:45:16;100337.06;;;14.62;67.85
74232;BME280;62590;52.430;4.902;2022-09-09T07:47:42;100341.75;;;14.68;67.86
74232;BME280;62590;52.430;4.902;2022-09-09T07:50:08;100344.44;;;14.68;67.86
74232;BME280;62590;52.430;4.902;2022-09-09T07:52:34;100340.59;;;14.62;67.85
74232;BME280;62590;52.430;4.902;2022-09-09T07:55:00;100341.94;;;14.66;67.86
74232;BME280;62590;52.430;4.902;2022-09-09T07:57:28;100348.69;;;14.70;67.85
74232;BME280;62590;52.430;4.902;2022-09-09T07:59:55;100345.31;;;14.68;67.85
74232;BME280;62590;52.430;4.902;2022-09-09T08:02:21;100351.06;;;14.65;67.86
74232;BME280;62590;52.430;4.902;2022-09-09T08:04:47;100343.44;;;14.77;67.85
74232;BME280;62590;52.430;4.902;2022-09-09T08:07:12;100343.25;;;14.78;67.86
74232;BME280;62590;52.430;4.902;2022-09-09T08:09:38;100341.88;;;14.82;67.86
74232;BME280;62590;52.430;4.902;2022-09-09T08:12:03;100344.53;;;14.90;67.86
74232;BME280;62590;52.430;4.902;2022-09-09T08:14:30;100341.34;;;14.87;67.87
74232;BME280;62590;52.430;4.902;2022-09-09T08:16:55;100340.63;;;14.93;67.88
74232;BME280;62590;52.430;4.902;2022-09-09T08:19:22;100343.13;;;15.02;67.88
74232;BME280;62590;52.430;4.902;2022-09-09T08:21:48;100340.25;;;15.04;67.88
74232;BME280;62590;52.430;4.902;2022-09-09T08:24:14;100340.22;;;15.12;67.88
74232;BME280;62590;52.430;4.902;2022-09-09T08:26:45;100342.91;;;15.12;67.88
74232;BME280;62590;52.430;4.902;2022-09-09T08:29:11;100332.09;;;15.12;67.88
74232;BME280;62590;52.430;4.902;2022-09-09T08:31:50;100337.13;;;15.15;67.89
74232;BME280;62590;52.430;4.902;2022-09-09T08:34:16;100335.94;;;15.17;67.89
74232;BME280;62590;52.430;4.902;2022-09-09T08:36:46;100343.38;;;15.15;67.89
74232;BME280;62590;52.430;4.902;2022-09-09T08:39:13;100345.06;;;15.16;67.89
74232;BME280;62590;52.430;4.902;2022-09-09T08:52:27;100346.34;;;15.28;67.90
74232;BME280;62590;52.430;4.902;2022-09-09T08:55:10;100361.88;;;15.34;67.90
74232;BME280;62590;52.430;4.902;2022-09-09T08:57:38;100350.88;;;15.36;67.90
74232;BME280;62590;52.430;4.902;2022-09-09T09:00:04;100355.91;;;15.39;67.90
74232;BME280;62590;52.430;4.902;2022-09-09T09:02:42;100356.56;;;15.49;67.92
74232;BME280;62590;52.430;4.902;2022-09-09T09:05:31;100366.22;;;15.43;67.91
74232;BME280;62590;52.430;4.902;2022-09-09T09:10:56;100353.59;;;15.59;67.92
74232;BME280;62590;52.430;4.902;2022-09-09T09:16:51;100361.13;;;15.40;67.90
74232;BME280;62590;52.430;4.902;2022-09-09T09:19:17;100362.16;;;15.39;67.90
74232;BME280;62590;52.430;4.902;2022-09-09T09:22:04;100358.59;;;15.47;67.90
74232;BME280;62590;52.430;4.902;2022-09-09T09:24:45;100362.16;;;15.47;67.92
74232;BME280;62590;52.430;4.902;2022-09-09T09:29:56;100367.13;;;15.59;67.91
74232;BME280;62590;52.430;4.902;2022-09-09T09:32:24;100366.00;;;15.53;67.91
74232;BME280;62590;52.430;4.902;2022-09-09T09:34:59;100365.50;;;15.49;67.91
74232;BME280;62590;52.430;4.902;2022-09-09T09:37:31;100374.91;;;15.53;67.92
74232;BME280;62590;52.430;4.902;2022-09-09T09:40:23;100380.34;;;15.53;67.92
74232;BME280;62590;52.430;4.902;2022-09-09T09:42:57;100383.03;;;15.53;67.92
74232;BME280;62590;52.430;4.902;2022-09-09T09:45:32;100373.53;;;15.58;67.92
74232;BME280;62590;52.430;4.902;2022-09-09T09:48:05;100372.88;;;15.56;67.92
74232;BME280;62590;52.430;4.902;2022-09-09T09:50:32;100373.91;;;15.55;67.91
74232;BME280;62590;52.430;4.902;2022-09-09T09:53:03;100382.50;;;15.58;67.92
74232;BME280;62590;52.430;4.902;2022-09-09T09:55:31;100384.13;;;15.67;67.91
74232;BME280;62590;52.430;4.902;2022-09-09T09:58:03;100375.16;;;15.67;67.92
74232;BME280;62590;52.430;4.902;2022-09-09T10:00:29;100367.25;;;15.65;67.91
74232;BME280;62590;52.430;4.902;2022-09-09T10:02:55;100368.19;;;15.72;67.93
74232;BME280;62590;52.430;4.902;2022-09-09T10:05:30;100367.78;;;15.61;67.92
74232;BME280;62590;52.430;4.902;2022-09-09T10:10:51;100366.47;;;15.79;67.93
74232;BME280;62590;52.430;4.902;2022-09-09T10:16:00;100373.31;;;15.67;67.92
74232;BME280;62590;52.430;4.902;2022-09-09T10:35:02;100364.03;;;16.21;67.97
74232;BME280;62590;52.430;4.902;2022-09-09T10:43:22;100357.16;;;16.33;67.97
74232;BME280;62590;52.430;4.902;2022-09-09T10:46:01;100357.22;;;16.25;67.96
74232;BME280;62590;52.430;4.902;2022-09-09T10:51:31;100355.28;;;16.34;67.97
74232;BME280;62590;52.430;4.902;2022-09-09T10:54:28;100344.75;;;16.39;67.99
74232;BME280;62590;52.430;4.902;2022-09-09T10:57:04;100351.78;;;16.48;67.98
74232;BME280;62590;52.430;4.902;2022-09-09T10:59:38;100349.53;;;16.66;68.00
74232;BME280;62590;52.430;4.902;2022-09-09T11:02:17;100349.53;;;16.66;68.00
74232;BME280;62590;52.430;4.902;2022-09-09T11:04:54;100342.81;;;16.62;68.00
74232;BME280;62590;52.430;4.902;2022-09-09T11:07:30;100340.34;;;16.67;68.00
74232;BME280;62590;52.430;4.902;2022-09-09T11:10:06;100333.19;;;16.74;68.00
74232;BME280;62590;52.430;4.902;2022-09-09T11:12:35;100344.34;;;16.86;68.00
74232;BME280;62590;52.430;4.902;2022-09-09T11:15:13;100344.81;;;17.04;68.04
74232;BME280;62590;52.430;4.902;2022-09-09T11:17:46;100331.78;;;16.78;68.00
74232;BME280;62590;52.430;4.902;2022-09-09T11:20:14;100334.56;;;16.85;68.01
74232;BME280;62590;52.430;4.902;2022-09-09T11:30:20;100338.59;;;16.89;68.01
74232;BME280;62590;52.430;4.902;2022-09-09T11:38:12;100335.03;;;16.74;68.00
74232;BME280;62590;52.430;4.902;2022-09-09T11:40:44;100339.25;;;16.76;68.00
74232;BME280;62590;52.430;4.902;2022-09-09T11:43:27;100324.19;;;16.88;68.01
74232;BME280;62590;52.430;4.902;2022-09-09T11:45:55;100342.78;;;16.91;68.03
74232;BME280;62590;52.430;4.902;2022-09-09T11:48:35;100331.59;;;16.80;68.00
74232;BME280;62590;52.430;4.902;2022-09-09T11:51:48;100342.72;;;16.70;68.00
74232;BME280;62590;52.430;4.902;2022-09-09T11:54:04;100333.53;;;16.71;68.00
74232;BME280;62590;52.430;4.902;2022-09-09T11:56:48;100335.59;;;16.69;68.01
74232;BME280;62590;52.430;4.902;2022-09-09T11:59:33;100334.88;;;16.61;67.99
74232;BME280;62590;52.430;4.902;2022-09-09T12:02:27;100332.69;;;16.85;68.01
74232;BME280;62590;52.430;4.902;2022-09-09T12:07:41;100350.19;;;16.68;68.00
74232;BME280;62590;52.430;4.902;2022-09-09T12:10:25;100344.13;;;16.66;67.99
74232;BME280;62590;52.430;4.902;2022-09-09T12:12:51;100344.19;;;16.58;67.99
74232;BME280;62590;52.430;4.902;2022-09-09T12:15:24;100350.19;;;16.54;67.99
74232;BME280;62590;52.430;4.902;2022-09-09T12:17:53;100346.91;;;16.58;67.99
74232;BME280;62590;52.430;4.902;2022-09-09T12:33:38;100319.16;;;17.42;68.05
74232;BME280;62590;52.430;4.902;2022-09-09T12:36:13;100321.91;;;17.84;68.08
74232;BME280;62590;52.430;4.902;2022-09-09T12:38:41;100321.78;;;17.50;68.05
74232;BME280;62590;52.430;4.902;2022-09-09T12:41:27;100327.59;;;17.32;68.04
74232;BME280;62590;52.430;4.902;2022-09-09T12:44:04;100323.38;;;17.09;68.03
74232;BME280;62590;52.430;4.902;2022-09-09T12:46:38;100319.81;;;17.23;68.03
74232;BME280;62590;52.430;4.902;2022-09-09T12:49:05;100322.31;;;17.24;68.04
74232;BME280;62590;52.430;4.902;2022-09-09T12:51:49;100311.97;;;17.13;68.02
74232;BME280;62590;52.430;4.902;2022-09-09T12:54:14;100320.81;;;17.22;68.03
74232;BME280;62590;52.430;4.902;2022-09-09T12:56:45;100322.78;;;17.28;68.04
74232;BME280;62590;52.430;4.902;2022-09-09T12:59:23;100315.78;;;17.19;68.04
74232;BME280;62590;52.430;4.902;2022-09-09T13:01:57;100330.03;;;17.06;68.03
74232;BME280;62590;52.430;4.902;2022-09-09T13:04:23;100322.69;;;17.00;68.02
74232;BME280;62590;52.430;4.902;2022-09-09T13:06:48;100313.44;;;16.80;68.01
74232;BME280;62590;52.430;4.902;2022-09-09T13:09:14;100324.56;;;16.85;68.01
74232;BME280;62590;52.430;4.902;2022-09-09T13:11:58;100330.03;;;17.06;68.03
74232;BME280;62590;52.430;4.902;2022-09-09T13:14:33;100335.88;;;16.89;68.03
74232;BME280;62590;52.430;4.902;2022-09-09T13:17:02;100334.53;;;16.99;68.02
74232;BME280;62590;52.430;4.902;2022-09-09T13:19:35;100331.47;;;17.02;68.01
74232;BME280;62590;52.430;4.902;2022-09-09T13:22:32;100335.09;;;17.09;68.03
74232;BME280;62590;52.430;4.902;2022-09-09T13:27:41;100340.69;;;17.08;68.03
74232;BME280;62590;52.430;4.902;2022-09-09T13:30:29;100319.16;;;17.21;68.04
74232;BME280;62590;52.430;4.902;2022-09-09T13:33:21;100332.13;;;17.25;68.05
74232;BME280;62590;52.430;4.902;2022-09-09T13:35:56;100323.19;;;17.10;68.03
74232;BME280;62590;52.430;4.902;2022-09-09T13:38:23;100324.19;;;16.88;68.01
74232;BME280;62590;52.430;4.902;2022-09-09T13:41:09;100338.34;;;17.05;68.03
74232;BME280;62590;52.430;4.902;2022-09-09T13:43:46;100327.81;;;16.95;68.01
74232;BME280;62590;52.430;4.902;2022-09-09T13:46:38;100333.59;;;17.07;68.03
74232;BME280;62590;52.430;4.902;2022-09-09T13:51:42;100328.16;;;17.07;68.03
74232;BME280;62590;52.430;4.902;2022-09-09T13:54:11;100325.34;;;17.15;68.02
74232;BME280;62590;52.430;4.902;2022-09-09T13:56:41;100327.59;;;17.32;68.05
74232;BME280;62590;52.430;4.902;2022-09-09T13:59:16;100329.16;;;17.20;68.04
74232;BME280;62590;52.430;4.902;2022-09-09T14:01:42;100331.66;;;17.22;68.04
74232;BME280;62590;52.430;4.902;2022-09-09T14:04:08;100324.28;;;17.16;68.03
74232;BME280;62590;52.430;4.902;2022-09-09T14:06:38;100324.38;;;17.22;68.03
74232;BME280;62590;52.430;4.902;2022-09-09T14:09:10;100325.84;;;17.25;68.05
74232;BME280;62590;52.430;4.902;2022-09-09T14:11:36;100322.56;;;17.29;68.04
74232;BME280;62590;52.430;4.902;2022-09-09T14:14:02;100322.19;;;17.32;68.05
74232;BME280;62590;52.430;4.902;2022-09-09T14:16:27;100323.63;;;17.28;68.04
74232;BME280;62590;52.430;4.902;2022-09-09T14:18:53;100320.25;;;17.62;68.06
74232;BME280;62590;52.430;4.902;2022-09-09T14:21:21;100310.13;;;17.77;68.07
74232;BME280;62590;52.430;4.902;2022-09-09T14:23:47;100309.44;;;18.24;68.11
74232;BME280;62590;52.430;4.902;2022-09-09T14:26:13;100315.41;;;18.06;68.10
74232;BME280;62590;52.430;4.902;2022-09-09T14:28:39;100326.25;;;17.79;68.08
74232;BME280;62590;52.430;4.902;2022-09-09T14:31:08;100326.16;;;17.72;68.08
74232;BME280;62590;52.430;4.902;2022-09-09T14:33:35;100330.38;;;17.75;68.08
74232;BME280;62590;52.430;4.902;2022-09-09T14:36:03;100330.94;;;17.70;68.07
74232;BME280;62590;52.430;4.902;2022-09-09T14:38:29;100327.38;;;17.70;68.06
74232;BME280;62590;52.430;4.902;2022-09-09T14:40:55;100326.88;;;17.60;68.07
74232;BME280;62590;52.430;4.902;2022-09-09T14:43:21;100319.06;;;17.71;68.06
74232;BME280;62590;52.430;4.902;2022-09-09T14:45:47;100328.75;;;17.59;68.06
74232;BME280;62590;52.430;4.902;2022-09-09T14:48:13;100330.97;;;17.34;68.05
74232;BME280;62590;52.430;4.902;2022-09-09T14:50:40;100335.06;;;17.45;68.06
74232;BME280;62590;52.430;4.902;2022-09-09T14:53:06;100329.94;;;17.35;68.05
74232;BME280;62590;52.430;4.902;2022-09-09T14:55:32;100334.78;;;17.40;68.05
74232;BME280;62590;52.430;4.902;2022-09-09T14:57:57;100334.72;;;17.33;68.04
74232;BME280;62590;52.430;4.902;2022-09-09T15:00:24;100333.16;;;17.24;68.05
74232;BME280;62590;52.430;4.902;2022-09-09T15:02:55;100337.19;;;17.28;68.03
74232;BME280;62590;52.430;4.902;2022-09-09T15:05:21;100334.59;;;17.20;68.03
74232;BME280;62590;52.430;4.902;2022-09-09T15:07:47;100328.50;;;17.18;68.03
74232;BME280;62590;52.430;4.902;2022-09-09T15:10:13;100341.81;;;17.13;68.03
74232;BME280;62590;52.430;4.902;2022-09-09T15:12:39;100330.03;;;17.06;68.03
74232;BME280;62590;52.430;4.902;2022-09-09T15:15:05;100339.25;;;17.12;68.03
74232;BME280;62590;52.430;4.902;2022-09-09T15:17:31;100344.16;;;17.02;68.02